Carmean, Kansas
Current Conditions -  °F | °C
As of 6:53 AM on Saturday 01 Nov 2014 (Local Time) from KEMP Reporting Station
Clear Clear  
Wind Chill: 17°   Ceiling: Unl
Heat Index: 27°   Visibility: 10mi
Dew Point: 20°   Wind: 10mph
Humidity: 75%   Direction: 130°SE
Pressure: 30.43"   Gusts: NA
Location:  37.9743°N, 95.5572°W
Report Text: KEMP 011153Z AUTO 13009KT 10SM CLR M03/M07 A3043 RMK AO2 SLP318 T10281067 11017 21050 56007
Loading
Personal Weather Stations






























Interactive Weather Map
Tropical Storm Tracking
New forecast layout! Learn more

10-Day Weather Forecast

Advertisements
Track Severe Weather on mobile